sensor_id;sensor_type;location;lat;lon;timestamp;P1;durP1;ratioP1;P2;durP2;ratioP2
77379;SDS011;66439;50.106;10.996;2023-07-28T00:00:38;0.30;;;0.30;;
77379;SDS011;66439;50.106;10.996;2023-07-28T00:03:00;0.30;;;0.30;;
77379;SDS011;66439;50.106;10.996;2023-07-28T00:05:03;0.90;;;0.90;;
77379;SDS011;66439;50.106;10.996;2023-07-28T00:07:06;0.40;;;0.40;;
77379;SDS011;66439;50.106;10.996;2023-07-28T00:09:09;0.10;;;0.10;;
77379;SDS011;66439;50.106;10.996;2023-07-28T00:11:11;0.20;;;0.20;;
77379;SDS011;66439;50.106;10.996;2023-07-28T00:13:15;0.50;;;0.50;;
77379;SDS011;66439;50.106;10.996;2023-07-28T00:15:18;0.10;;;0.10;;
77379;SDS011;66439;50.106;10.996;2023-07-28T00:17:21;0.20;;;0.20;;
77379;SDS011;66439;50.106;10.996;2023-07-28T00:19:24;0.20;;;0.20;;
77379;SDS011;66439;50.106;10.996;2023-07-28T00:21:27;0.10;;;0.10;;
77379;SDS011;66439;50.106;10.996;2023-07-28T00:23:29;0.20;;;0.20;;
77379;SDS011;66439;50.106;10.996;2023-07-28T00:25:32;0.50;;;0.50;;
77379;SDS011;66439;50.106;10.996;2023-07-28T00:27:34;0.30;;;0.30;;
77379;SDS011;66439;50.106;10.996;2023-07-28T00:29:37;0.20;;;0.20;;
77379;SDS011;66439;50.106;10.996;2023-07-28T00:31:40;0.30;;;0.30;;
77379;SDS011;66439;50.106;10.996;2023-07-28T00:33:43;0.10;;;0.10;;
77379;SDS011;66439;50.106;10.996;2023-07-28T00:35:45;0.10;;;0.10;;
77379;SDS011;66439;50.106;10.996;2023-07-28T00:37:48;0.30;;;0.30;;
77379;SDS011;66439;50.106;10.996;2023-07-28T00:39:51;0.10;;;0.10;;
77379;SDS011;66439;50.106;10.996;2023-07-28T00:41:53;0.40;;;0.40;;
77379;SDS011;66439;50.106;10.996;2023-07-28T00:43:56;0.10;;;0.10;;
77379;SDS011;66439;50.106;10.996;2023-07-28T00:45:58;0.30;;;0.30;;
77379;SDS011;66439;50.106;10.996;2023-07-28T00:48:01;0.10;;;0.10;;
77379;SDS011;66439;50.106;10.996;2023-07-28T00:50:04;0.10;;;0.10;;
77379;SDS011;66439;50.106;10.996;2023-07-28T00:52:08;0.10;;;0.10;;
77379;SDS011;66439;50.106;10.996;2023-07-28T00:54:10;0.10;;;0.10;;
77379;SDS011;66439;50.106;10.996;2023-07-28T00:56:14;0.10;;;0.10;;
77379;SDS011;66439;50.106;10.996;2023-07-28T00:58:18;0.20;;;0.20;;
77379;SDS011;66439;50.106;10.996;2023-07-28T01:00:21;0.10;;;0.10;;
77379;SDS011;66439;50.106;10.996;2023-07-28T01:02:23;0.20;;;0.20;;
77379;SDS011;66439;50.106;10.996;2023-07-28T01:04:26;0.50;;;0.50;;
77379;SDS011;66439;50.106;10.996;2023-07-28T01:08:57;0.10;;;0.10;;
77379;SDS011;66439;50.106;10.996;2023-07-28T01:11:08;0.10;;;0.10;;
77379;SDS011;66439;50.106;10.996;2023-07-28T01:13:11;0.20;;;0.20;;
77379;SDS011;66439;50.106;10.996;2023-07-28T01:15:13;0.20;;;0.20;;
77379;SDS011;66439;50.106;10.996;2023-07-28T01:17:17;0.30;;;0.30;;
77379;SDS011;66439;50.106;10.996;2023-07-28T01:19:22;0.50;;;0.50;;
77379;SDS011;66439;50.106;10.996;2023-07-28T01:21:26;0.10;;;0.10;;
77379;SDS011;66439;50.106;10.996;2023-07-28T01:23:42;0.10;;;0.10;;
77379;SDS011;66439;50.106;10.996;2023-07-28T01:26:03;0.40;;;0.40;;
77379;SDS011;66439;50.106;10.996;2023-07-28T01:28:09;0.20;;;0.20;;
77379;SDS011;66439;50.106;10.996;2023-07-28T01:30:13;0.20;;;0.20;;
77379;SDS011;66439;50.106;10.996;2023-07-28T01:32:16;0.50;;;0.50;;
77379;SDS011;66439;50.106;10.996;2023-07-28T01:34:18;0.30;;;0.30;;
77379;SDS011;66439;50.106;10.996;2023-07-28T01:36:21;0.50;;;0.50;;
77379;SDS011;66439;50.106;10.996;2023-07-28T01:38:24;0.30;;;0.30;;
77379;SDS011;66439;50.106;10.996;2023-07-28T01:40:28;0.00;;;0.00;;
77379;SDS011;66439;50.106;10.996;2023-07-28T01:42:30;0.20;;;0.20;;
77379;SDS011;66439;50.106;10.996;2023-07-28T01:44:33;0.10;;;0.10;;
77379;SDS011;66439;50.106;10.996;2023-07-28T01:46:35;0.30;;;0.30;;
77379;SDS011;66439;50.106;10.996;2023-07-28T01:48:38;0.30;;;0.30;;
77379;SDS011;66439;50.106;10.996;2023-07-28T01:50:41;0.20;;;0.20;;
77379;SDS011;66439;50.106;10.996;2023-07-28T01:52:44;0.30;;;0.30;;
77379;SDS011;66439;50.106;10.996;2023-07-28T01:54:46;0.30;;;0.30;;
77379;SDS011;66439;50.106;10.996;2023-07-28T01:56:49;0.20;;;0.20;;
77379;SDS011;66439;50.106;10.996;2023-07-28T01:58:51;0.20;;;0.20;;
77379;SDS011;66439;50.106;10.996;2023-07-28T02:00:54;0.20;;;0.20;;
77379;SDS011;66439;50.106;10.996;2023-07-28T02:02:57;0.10;;;0.10;;
77379;SDS011;66439;50.106;10.996;2023-07-28T02:05:01;0.10;;;0.10;;
77379;SDS011;66439;50.106;10.996;2023-07-28T02:07:04;0.20;;;0.20;;
77379;SDS011;66439;50.106;10.996;2023-07-28T02:09:07;0.10;;;0.10;;
77379;SDS011;66439;50.106;10.996;2023-07-28T02:11:09;0.10;;;0.10;;
77379;SDS011;66439;50.106;10.996;2023-07-28T02:13:12;0.20;;;0.20;;
77379;SDS011;66439;50.106;10.996;2023-07-28T02:15:15;0.20;;;0.20;;
77379;SDS011;66439;50.106;10.996;2023-07-28T02:17:17;0.30;;;0.30;;
77379;SDS011;66439;50.106;10.996;2023-07-28T02:19:20;0.30;;;0.30;;
77379;SDS011;66439;50.106;10.996;2023-07-28T02:21:22;0.50;;;0.50;;
77379;SDS011;66439;50.106;10.996;2023-07-28T02:23:25;0.40;;;0.40;;
77379;SDS011;66439;50.106;10.996;2023-07-28T02:25:28;0.20;;;0.20;;
77379;SDS011;66439;50.106;10.996;2023-07-28T02:27:31;0.30;;;0.30;;
77379;SDS011;66439;50.106;10.996;2023-07-28T02:29:33;0.10;;;0.10;;
77379;SDS011;66439;50.106;10.996;2023-07-28T02:31:36;0.70;;;0.70;;
77379;SDS011;66439;50.106;10.996;2023-07-28T02:33:38;0.30;;;0.30;;
77379;SDS011;66439;50.106;10.996;2023-07-28T02:35:41;0.20;;;0.20;;
77379;SDS011;66439;50.106;10.996;2023-07-28T02:37:44;0.60;;;0.60;;
77379;SDS011;66439;50.106;10.996;2023-07-28T02:39:46;0.20;;;0.20;;
77379;SDS011;66439;50.106;10.996;2023-07-28T02:41:50;0.20;;;0.20;;
77379;SDS011;66439;50.106;10.996;2023-07-28T02:43:52;0.20;;;0.20;;
77379;SDS011;66439;50.106;10.996;2023-07-28T02:45:55;0.10;;;0.10;;
77379;SDS011;66439;50.106;10.996;2023-07-28T02:47:59;0.30;;;0.30;;
77379;SDS011;66439;50.106;10.996;2023-07-28T02:50:02;0.20;;;0.20;;
77379;SDS011;66439;50.106;10.996;2023-07-28T02:52:05;0.30;;;0.30;;
77379;SDS011;66439;50.106;10.996;2023-07-28T02:54:08;0.20;;;0.20;;
77379;SDS011;66439;50.106;10.996;2023-07-28T02:56:11;0.40;;;0.40;;
77379;SDS011;66439;50.106;10.996;2023-07-28T02:58:14;0.40;;;0.40;;
77379;SDS011;66439;50.106;10.996;2023-07-28T03:00:17;1.60;;;1.50;;
77379;SDS011;66439;50.106;10.996;2023-07-28T03:02:19;0.20;;;0.20;;
77379;SDS011;66439;50.106;10.996;2023-07-28T03:04:23;0.00;;;0.00;;
77379;SDS011;66439;50.106;10.996;2023-07-28T03:06:45;0.20;;;0.20;;
77379;SDS011;66439;50.106;10.996;2023-07-28T03:08:48;0.50;;;0.50;;
77379;SDS011;66439;50.106;10.996;2023-07-28T03:11:01;0.20;;;0.20;;
77379;SDS011;66439;50.106;10.996;2023-07-28T03:13:07;0.20;;;0.20;;
77379;SDS011;66439;50.106;10.996;2023-07-28T03:15:09;0.40;;;0.40;;
77379;SDS011;66439;50.106;10.996;2023-07-28T03:17:12;0.40;;;0.40;;
77379;SDS011;66439;50.106;10.996;2023-07-28T03:19:15;0.20;;;0.20;;
77379;SDS011;66439;50.106;10.996;2023-07-28T03:21:17;0.40;;;0.40;;
77379;SDS011;66439;50.106;10.996;2023-07-28T03:23:20;0.30;;;0.30;;
77379;SDS011;66439;50.106;10.996;2023-07-28T03:25:23;0.20;;;0.20;;
77379;SDS011;66439;50.106;10.996;2023-07-28T03:27:25;0.30;;;0.30;;
77379;SDS011;66439;50.106;10.996;2023-07-28T03:29:28;0.10;;;0.10;;
77379;SDS011;66439;50.106;10.996;2023-07-28T03:31:31;0.30;;;0.30;;
77379;SDS011;66439;50.106;10.996;2023-07-28T03:33:33;0.20;;;0.20;;
77379;SDS011;66439;50.106;10.996;2023-07-28T03:35:36;0.10;;;0.10;;
77379;SDS011;66439;50.106;10.996;2023-07-28T03:37:42;0.20;;;0.20;;
77379;SDS011;66439;50.106;10.996;2023-07-28T03:39:45;0.20;;;0.20;;
77379;SDS011;66439;50.106;10.996;2023-07-28T03:41:48;0.10;;;0.10;;
77379;SDS011;66439;50.106;10.996;2023-07-28T03:43:50;0.20;;;0.20;;
77379;SDS011;66439;50.106;10.996;2023-07-28T03:45:53;0.40;;;0.40;;
77379;SDS011;66439;50.106;10.996;2023-07-28T03:47:56;0.20;;;0.20;;
77379;SDS011;66439;50.106;10.996;2023-07-28T03:49:58;0.50;;;0.50;;
77379;SDS011;66439;50.106;10.996;2023-07-28T03:52:01;0.50;;;0.50;;
77379;SDS011;66439;50.106;10.996;2023-07-28T03:54:04;0.30;;;0.30;;
77379;SDS011;66439;50.106;10.996;2023-07-28T03:56:07;0.30;;;0.30;;
77379;SDS011;66439;50.106;10.996;2023-07-28T03:58:09;0.20;;;0.20;;
77379;SDS011;66439;50.106;10.996;2023-07-28T04:00:12;0.20;;;0.20;;
77379;SDS011;66439;50.106;10.996;2023-07-28T04:02:16;0.30;;;0.30;;
77379;SDS011;66439;50.106;10.996;2023-07-28T04:04:19;0.30;;;0.30;;
77379;SDS011;66439;50.106;10.996;2023-07-28T04:06:38;0.50;;;0.50;;
77379;SDS011;66439;50.106;10.996;2023-07-28T04:08:43;0.10;;;0.10;;
77379;SDS011;66439;50.106;10.996;2023-07-28T04:10:46;2.60;;;2.40;;
77379;SDS011;66439;50.106;10.996;2023-07-28T04:12:49;2.90;;;2.80;;
77379;SDS011;66439;50.106;10.996;2023-07-28T04:14:52;1.50;;;1.40;;
77379;SDS011;66439;50.106;10.996;2023-07-28T04:16:58;1.50;;;1.40;;
77379;SDS011;66439;50.106;10.996;2023-07-28T04:19:02;1.20;;;1.20;;
77379;SDS011;66439;50.106;10.996;2023-07-28T04:21:05;1.00;;;1.00;;
77379;SDS011;66439;50.106;10.996;2023-07-28T04:23:08;2.30;;;2.20;;
77379;SDS011;66439;50.106;10.996;2023-07-28T04:25:12;1.20;;;1.10;;
77379;SDS011;66439;50.106;10.996;2023-07-28T04:27:18;1.00;;;1.00;;
77379;SDS011;66439;50.106;10.996;2023-07-28T04:31:28;1.50;;;1.40;;
77379;SDS011;66439;50.106;10.996;2023-07-28T04:33:41;0.70;;;0.70;;
77379;SDS011;66439;50.106;10.996;2023-07-28T04:35:44;0.70;;;0.70;;
77379;SDS011;66439;50.106;10.996;2023-07-28T04:37:50;1.10;;;1.10;;
77379;SDS011;66439;50.106;10.996;2023-07-28T04:40:12;2.30;;;2.20;;
77379;SDS011;66439;50.106;10.996;2023-07-28T04:42:18;2.80;;;2.70;;
77379;SDS011;66439;50.106;10.996;2023-07-28T04:44:21;2.90;;;2.80;;
77379;SDS011;66439;50.106;10.996;2023-07-28T04:46:27;1.40;;;1.40;;
77379;SDS011;66439;50.106;10.996;2023-07-28T04:48:31;1.00;;;1.00;;
77379;SDS011;66439;50.106;10.996;2023-07-28T04:50:36;0.80;;;0.80;;
77379;SDS011;66439;50.106;10.996;2023-07-28T04:52:52;1.30;;;1.20;;
77379;SDS011;66439;50.106;10.996;2023-07-28T04:55:13;1.70;;;1.60;;
77379;SDS011;66439;50.106;10.996;2023-07-28T04:57:17;3.00;;;2.80;;
77379;SDS011;66439;50.106;10.996;2023-07-28T05:01:26;1.50;;;1.40;;
77379;SDS011;66439;50.106;10.996;2023-07-28T05:03:30;0.90;;;0.90;;
77379;SDS011;66439;50.106;10.996;2023-07-28T05:05:38;0.70;;;0.70;;
77379;SDS011;66439;50.106;10.996;2023-07-28T05:07:41;1.30;;;1.20;;
77379;SDS011;66439;50.106;10.996;2023-07-28T05:09:45;1.50;;;1.40;;
77379;SDS011;66439;50.106;10.996;2023-07-28T05:11:50;1.30;;;1.30;;
77379;SDS011;66439;50.106;10.996;2023-07-28T05:13:53;1.40;;;1.30;;
77379;SDS011;66439;50.106;10.996;2023-07-28T05:15:56;1.10;;;1.10;;
77379;SDS011;66439;50.106;10.996;2023-07-28T05:18:31;2.40;;;2.30;;
77379;SDS011;66439;50.106;10.996;2023-07-28T05:20:55;1.50;;;1.40;;
77379;SDS011;66439;50.106;10.996;2023-07-28T05:22:58;1.50;;;1.40;;
77379;SDS011;66439;50.106;10.996;2023-07-28T05:25:05;1.40;;;1.30;;
77379;SDS011;66439;50.106;10.996;2023-07-28T05:27:13;1.30;;;1.30;;
77379;SDS011;66439;50.106;10.996;2023-07-28T05:29:18;1.90;;;1.80;;
77379;SDS011;66439;50.106;10.996;2023-07-28T05:31:28;2.30;;;2.20;;
77379;SDS011;66439;50.106;10.996;2023-07-28T05:33:32;2.20;;;2.10;;
77379;SDS011;66439;50.106;10.996;2023-07-28T05:35:40;1.30;;;1.20;;
77379;SDS011;66439;50.106;10.996;2023-07-28T05:37:42;1.10;;;1.00;;
77379;SDS011;66439;50.106;10.996;2023-07-28T05:39:45;0.90;;;0.90;;
77379;SDS011;66439;50.106;10.996;2023-07-28T05:41:48;1.10;;;1.10;;
77379;SDS011;66439;50.106;10.996;2023-07-28T05:43:51;1.20;;;1.10;;
77379;SDS011;66439;50.106;10.996;2023-07-28T05:45:54;1.00;;;1.00;;
77379;SDS011;66439;50.106;10.996;2023-07-28T05:47:57;1.10;;;1.00;;
77379;SDS011;66439;50.106;10.996;2023-07-28T05:50:00;0.90;;;0.90;;
77379;SDS011;66439;50.106;10.996;2023-07-28T05:52:07;1.00;;;1.00;;
77379;SDS011;66439;50.106;10.996;2023-07-28T05:54:14;1.00;;;1.00;;
77379;SDS011;66439;50.106;10.996;2023-07-28T05:56:17;0.90;;;0.90;;
77379;SDS011;66439;50.106;10.996;2023-07-28T05:58:21;2.30;;;2.20;;
77379;SDS011;66439;50.106;10.996;2023-07-28T06:03:18;0.20;;;0.20;;
77379;SDS011;66439;50.106;10.996;2023-07-28T06:05:30;0.10;;;0.10;;
77379;SDS011;66439;50.106;10.996;2023-07-28T06:07:33;0.30;;;0.30;;
77379;SDS011;66439;50.106;10.996;2023-07-28T06:09:35;0.20;;;0.20;;
77379;SDS011;66439;50.106;10.996;2023-07-28T06:11:38;0.20;;;0.20;;
77379;SDS011;66439;50.106;10.996;2023-07-28T06:13:41;0.20;;;0.20;;
77379;SDS011;66439;50.106;10.996;2023-07-28T06:15:44;0.10;;;0.10;;
77379;SDS011;66439;50.106;10.996;2023-07-28T06:17:49;0.20;;;0.20;;
77379;SDS011;66439;50.106;10.996;2023-07-28T06:19:53;0.10;;;0.10;;
77379;SDS011;66439;50.106;10.996;2023-07-28T06:21:57;0.30;;;0.30;;
77379;SDS011;66439;50.106;10.996;2023-07-28T06:24:00;0.40;;;0.40;;
77379;SDS011;66439;50.106;10.996;2023-07-28T06:26:02;0.10;;;0.10;;
77379;SDS011;66439;50.106;10.996;2023-07-28T06:28:05;0.20;;;0.20;;
77379;SDS011;66439;50.106;10.996;2023-07-28T06:30:08;0.30;;;0.30;;
77379;SDS011;66439;50.106;10.996;2023-07-28T06:32:12;0.20;;;0.20;;
77379;SDS011;66439;50.106;10.996;2023-07-28T06:34:14;0.10;;;0.10;;
77379;SDS011;66439;50.106;10.996;2023-07-28T06:36:17;0.10;;;0.10;;
77379;SDS011;66439;50.106;10.996;2023-07-28T06:38:20;0.10;;;0.10;;
77379;SDS011;66439;50.106;10.996;2023-07-28T06:40:23;0.30;;;0.30;;
77379;SDS011;66439;50.106;10.996;2023-07-28T06:42:25;0.10;;;0.10;;
77379;SDS011;66439;50.106;10.996;2023-07-28T06:44:31;0.20;;;0.20;;
77379;SDS011;66439;50.106;10.996;2023-07-28T06:46:34;0.20;;;0.20;;
77379;SDS011;66439;50.106;10.996;2023-07-28T06:48:36;0.30;;;0.30;;
77379;SDS011;66439;50.106;10.996;2023-07-28T06:50:39;0.10;;;0.10;;
77379;SDS011;66439;50.106;10.996;2023-07-28T06:52:42;0.10;;;0.10;;
77379;SDS011;66439;50.106;10.996;2023-07-28T06:54:45;0.20;;;0.20;;
77379;SDS011;66439;50.106;10.996;2023-07-28T06:56:58;0.10;;;0.10;;
77379;SDS011;66439;50.106;10.996;2023-07-28T06:59:30;0.20;;;0.20;;
77379;SDS011;66439;50.106;10.996;2023-07-28T07:01:32;0.60;;;0.60;;
77379;SDS011;66439;50.106;10.996;2023-07-28T07:03:36;0.80;;;0.80;;
77379;SDS011;66439;50.106;10.996;2023-07-28T07:05:39;0.60;;;0.60;;
77379;SDS011;66439;50.106;10.996;2023-07-28T07:07:42;0.10;;;0.10;;
77379;SDS011;66439;50.106;10.996;2023-07-28T07:09:45;0.30;;;0.30;;
77379;SDS011;66439;50.106;10.996;2023-07-28T07:11:48;0.10;;;0.10;;
77379;SDS011;66439;50.106;10.996;2023-07-28T07:13:51;0.20;;;0.20;;
77379;SDS011;66439;50.106;10.996;2023-07-28T07:15:53;0.20;;;0.20;;
77379;SDS011;66439;50.106;10.996;2023-07-28T07:17:56;0.10;;;0.10;;
77379;SDS011;66439;50.106;10.996;2023-07-28T07:20:01;0.30;;;0.30;;
77379;SDS011;66439;50.106;10.996;2023-07-28T07:22:04;0.30;;;0.30;;
77379;SDS011;66439;50.106;10.996;2023-07-28T07:24:08;0.20;;;0.20;;
77379;SDS011;66439;50.106;10.996;2023-07-28T07:26:12;0.10;;;0.10;;
77379;SDS011;66439;50.106;10.996;2023-07-28T07:28:15;0.20;;;0.20;;
77379;SDS011;66439;50.106;10.996;2023-07-28T07:30:18;0.20;;;0.20;;
77379;SDS011;66439;50.106;10.996;2023-07-28T07:32:22;0.10;;;0.10;;
77379;SDS011;66439;50.106;10.996;2023-07-28T07:34:24;0.20;;;0.20;;
77379;SDS011;66439;50.106;10.996;2023-07-28T07:36:27;0.20;;;0.20;;
77379;SDS011;66439;50.106;10.996;2023-07-28T07:38:30;0.20;;;0.20;;
77379;SDS011;66439;50.106;10.996;2023-07-28T07:40:32;0.20;;;0.20;;
77379;SDS011;66439;50.106;10.996;2023-07-28T07:42:42;0.30;;;0.30;;
77379;SDS011;66439;50.106;10.996;2023-07-28T07:44:46;0.30;;;0.30;;
77379;SDS011;66439;50.106;10.996;2023-07-28T07:46:49;0.50;;;0.50;;
77379;SDS011;66439;50.106;10.996;2023-07-28T07:48:52;0.20;;;0.20;;
77379;SDS011;66439;50.106;10.996;2023-07-28T07:50:55;0.50;;;0.50;;
77379;SDS011;66439;50.106;10.996;2023-07-28T07:52:57;0.10;;;0.10;;
77379;SDS011;66439;50.106;10.996;2023-07-28T07:55:00;0.30;;;0.30;;
77379;SDS011;66439;50.106;10.996;2023-07-28T07:57:03;0.40;;;0.40;;
77379;SDS011;66439;50.106;10.996;2023-07-28T07:59:06;0.30;;;0.30;;
77379;SDS011;66439;50.106;10.996;2023-07-28T08:01:09;0.20;;;0.20;;
77379;SDS011;66439;50.106;10.996;2023-07-28T08:03:15;0.10;;;0.10;;
77379;SDS011;66439;50.106;10.996;2023-07-28T08:05:17;0.10;;;0.10;;
77379;SDS011;66439;50.106;10.996;2023-07-28T08:07:20;0.10;;;0.10;;
77379;SDS011;66439;50.106;10.996;2023-07-28T08:09:23;0.20;;;0.20;;
77379;SDS011;66439;50.106;10.996;2023-07-28T08:11:26;0.20;;;0.20;;
77379;SDS011;66439;50.106;10.996;2023-07-28T08:13:30;0.10;;;0.10;;
77379;SDS011;66439;50.106;10.996;2023-07-28T08:15:34;0.10;;;0.10;;
77379;SDS011;66439;50.106;10.996;2023-07-28T08:17:37;0.20;;;0.20;;
77379;SDS011;66439;50.106;10.996;2023-07-28T08:19:39;0.20;;;0.20;;
77379;SDS011;66439;50.106;10.996;2023-07-28T08:21:42;0.20;;;0.20;;
77379;SDS011;66439;50.106;10.996;2023-07-28T08:23:45;0.50;;;0.50;;
77379;SDS011;66439;50.106;10.996;2023-07-28T08:25:51;0.10;;;0.10;;
77379;SDS011;66439;50.106;10.996;2023-07-28T08:27:53;0.00;;;0.00;;
77379;SDS011;66439;50.106;10.996;2023-07-28T08:29:56;0.10;;;0.10;;
77379;SDS011;66439;50.106;10.996;2023-07-28T08:31:59;0.20;;;0.20;;
77379;SDS011;66439;50.106;10.996;2023-07-28T08:34:03;0.40;;;0.40;;
77379;SDS011;66439;50.106;10.996;2023-07-28T08:36:05;0.20;;;0.20;;
77379;SDS011;66439;50.106;10.996;2023-07-28T08:38:08;0.20;;;0.20;;
77379;SDS011;66439;50.106;10.996;2023-07-28T08:40:11;0.10;;;0.10;;
77379;SDS011;66439;50.106;10.996;2023-07-28T08:42:15;0.10;;;0.10;;
77379;SDS011;66439;50.106;10.996;2023-07-28T08:44:18;0.20;;;0.20;;
77379;SDS011;66439;50.106;10.996;2023-07-28T08:46:21;0.20;;;0.20;;
77379;SDS011;66439;50.106;10.996;2023-07-28T08:48:26;0.20;;;0.20;;
77379;SDS011;66439;50.106;10.996;2023-07-28T08:50:29;0.60;;;0.60;;
77379;SDS011;66439;50.106;10.996;2023-07-28T08:52:32;0.60;;;0.60;;
77379;SDS011;66439;50.106;10.996;2023-07-28T08:54:35;0.20;;;0.20;;
77379;SDS011;66439;50.106;10.996;2023-07-28T08:56:38;0.40;;;0.40;;
77379;SDS011;66439;50.106;10.996;2023-07-28T08:58:43;0.50;;;0.50;;
77379;SDS011;66439;50.106;10.996;2023-07-28T09:00:49;0.30;;;0.30;;
77379;SDS011;66439;50.106;10.996;2023-07-28T09:02:52;0.40;;;0.40;;
77379;SDS011;66439;50.106;10.996;2023-07-28T09:04:56;0.50;;;0.50;;
77379;SDS011;66439;50.106;10.996;2023-07-28T09:06:59;0.20;;;0.20;;
77379;SDS011;66439;50.106;10.996;2023-07-28T09:09:02;0.20;;;0.20;;
77379;SDS011;66439;50.106;10.996;2023-07-28T09:11:09;0.10;;;0.10;;
77379;SDS011;66439;50.106;10.996;2023-07-28T09:13:12;0.20;;;0.20;;
77379;SDS011;66439;50.106;10.996;2023-07-28T09:15:19;0.20;;;0.20;;
77379;SDS011;66439;50.106;10.996;2023-07-28T09:17:23;0.30;;;0.30;;
77379;SDS011;66439;50.106;10.996;2023-07-28T09:19:26;0.30;;;0.30;;
77379;SDS011;66439;50.106;10.996;2023-07-28T09:21:29;0.20;;;0.20;;
77379;SDS011;66439;50.106;10.996;2023-07-28T09:23:32;0.30;;;0.30;;
77379;SDS011;66439;50.106;10.996;2023-07-28T09:25:38;0.30;;;0.30;;
77379;SDS011;66439;50.106;10.996;2023-07-28T09:27:53;0.20;;;0.20;;
77379;SDS011;66439;50.106;10.996;2023-07-28T09:30:13;0.30;;;0.30;;
77379;SDS011;66439;50.106;10.996;2023-07-28T09:32:28;0.10;;;0.10;;
77379;SDS011;66439;50.106;10.996;2023-07-28T09:34:35;0.30;;;0.30;;
77379;SDS011;66439;50.106;10.996;2023-07-28T09:36:38;0.10;;;0.10;;
77379;SDS011;66439;50.106;10.996;2023-07-28T09:38:41;0.10;;;0.10;;
77379;SDS011;66439;50.106;10.996;2023-07-28T09:40:44;0.20;;;0.20;;
77379;SDS011;66439;50.106;10.996;2023-07-28T09:42:48;0.20;;;0.20;;
77379;SDS011;66439;50.106;10.996;2023-07-28T09:44:56;0.30;;;0.30;;
77379;SDS011;66439;50.106;10.996;2023-07-28T09:46:59;0.10;;;0.10;;
77379;SDS011;66439;50.106;10.996;2023-07-28T09:49:04;0.40;;;0.40;;
77379;SDS011;66439;50.106;10.996;2023-07-28T09:51:16;0.30;;;0.30;;
77379;SDS011;66439;50.106;10.996;2023-07-28T09:53:22;0.30;;;0.30;;
77379;SDS011;66439;50.106;10.996;2023-07-28T09:55:25;0.20;;;0.20;;
77379;SDS011;66439;50.106;10.996;2023-07-28T09:57:28;0.10;;;0.10;;
77379;SDS011;66439;50.106;10.996;2023-07-28T09:59:37;0.10;;;0.10;;
77379;SDS011;66439;50.106;10.996;2023-07-28T10:01:41;0.20;;;0.20;;
77379;SDS011;66439;50.106;10.996;2023-07-28T10:03:50;0.30;;;0.30;;
77379;SDS011;66439;50.106;10.996;2023-07-28T10:05:54;0.10;;;0.10;;
77379;SDS011;66439;50.106;10.996;2023-07-28T10:07:57;0.30;;;0.30;;
77379;SDS011;66439;50.106;10.996;2023-07-28T10:10:04;0.30;;;0.30;;
77379;SDS011;66439;50.106;10.996;2023-07-28T10:12:21;0.30;;;0.30;;
77379;SDS011;66439;50.106;10.996;2023-07-28T10:14:28;0.70;;;0.70;;
77379;SDS011;66439;50.106;10.996;2023-07-28T10:16:42;0.20;;;0.20;;
77379;SDS011;66439;50.106;10.996;2023-07-28T10:18:51;0.10;;;0.10;;
77379;SDS011;66439;50.106;10.996;2023-07-28T10:20:55;0.30;;;0.30;;
77379;SDS011;66439;50.106;10.996;2023-07-28T10:25:13;0.50;;;0.50;;
77379;SDS011;66439;50.106;10.996;2023-07-28T10:27:35;0.20;;;0.20;;
77379;SDS011;66439;50.106;10.996;2023-07-28T10:29:59;0.30;;;0.30;;
77379;SDS011;66439;50.106;10.996;2023-07-28T10:32:29;0.40;;;0.40;;
77379;SDS011;66439;50.106;10.996;2023-07-28T10:34:41;0.10;;;0.10;;
77379;SDS011;66439;50.106;10.996;2023-07-28T10:36:44;0.20;;;0.20;;
77379;SDS011;66439;50.106;10.996;2023-07-28T10:38:59;0.30;;;0.30;;
77379;SDS011;66439;50.106;10.996;2023-07-28T10:41:06;0.50;;;0.50;;
77379;SDS011;66439;50.106;10.996;2023-07-28T10:43:11;0.10;;;0.10;;
77379;SDS011;66439;50.106;10.996;2023-07-28T10:45:13;0.20;;;0.20;;
77379;SDS011;66439;50.106;10.996;2023-07-28T10:47:18;0.30;;;0.30;;
77379;SDS011;66439;50.106;10.996;2023-07-28T10:49:23;0.10;;;0.10;;
77379;SDS011;66439;50.106;10.996;2023-07-28T10:51:27;0.60;;;0.60;;
77379;SDS011;66439;50.106;10.996;2023-07-28T10:53:37;0.40;;;0.40;;
77379;SDS011;66439;50.106;10.996;2023-07-28T10:55:40;0.50;;;0.50;;
77379;SDS011;66439;50.106;10.996;2023-07-28T10:57:43;0.30;;;0.30;;
77379;SDS011;66439;50.106;10.996;2023-07-28T10:59:50;0.30;;;0.30;;
77379;SDS011;66439;50.106;10.996;2023-07-28T11:01:54;0.30;;;0.30;;
77379;SDS011;66439;50.106;10.996;2023-07-28T11:04:05;0.30;;;0.30;;
77379;SDS011;66439;50.106;10.996;2023-07-28T11:06:14;0.60;;;0.60;;
77379;SDS011;66439;50.106;10.996;2023-07-28T11:08:17;0.20;;;0.20;;
77379;SDS011;66439;50.106;10.996;2023-07-28T11:10:22;0.40;;;0.40;;
77379;SDS011;66439;50.106;10.996;2023-07-28T11:12:26;0.80;;;0.80;;
77379;SDS011;66439;50.106;10.996;2023-07-28T11:14:28;0.20;;;0.20;;
77379;SDS011;66439;50.106;10.996;2023-07-28T11:16:34;0.50;;;0.50;;
77379;SDS011;66439;50.106;10.996;2023-07-28T11:18:38;0.50;;;0.50;;
77379;SDS011;66439;50.106;10.996;2023-07-28T11:20:41;0.00;;;0.00;;
77379;SDS011;66439;50.106;10.996;2023-07-28T11:22:51;0.20;;;0.20;;
77379;SDS011;66439;50.106;10.996;2023-07-28T11:24:56;0.50;;;0.50;;
77379;SDS011;66439;50.106;10.996;2023-07-28T11:26:59;0.40;;;0.40;;
77379;SDS011;66439;50.106;10.996;2023-07-28T11:29:02;0.30;;;0.30;;
77379;SDS011;66439;50.106;10.996;2023-07-28T11:31:06;0.60;;;0.60;;
77379;SDS011;66439;50.106;10.996;2023-07-28T11:33:12;0.60;;;0.60;;
77379;SDS011;66439;50.106;10.996;2023-07-28T11:35:18;0.40;;;0.40;;
77379;SDS011;66439;50.106;10.996;2023-07-28T11:37:22;0.30;;;0.30;;
77379;SDS011;66439;50.106;10.996;2023-07-28T11:39:25;0.20;;;0.20;;
77379;SDS011;66439;50.106;10.996;2023-07-28T11:41:27;0.30;;;0.30;;
77379;SDS011;66439;50.106;10.996;2023-07-28T11:43:30;0.40;;;0.40;;
77379;SDS011;66439;50.106;10.996;2023-07-28T11:45:35;0.30;;;0.30;;
77379;SDS011;66439;50.106;10.996;2023-07-28T11:47:38;0.30;;;0.30;;
77379;SDS011;66439;50.106;10.996;2023-07-28T11:49:47;0.20;;;0.20;;
77379;SDS011;66439;50.106;10.996;2023-07-28T11:51:52;0.10;;;0.10;;
77379;SDS011;66439;50.106;10.996;2023-07-28T11:53:56;0.30;;;0.30;;
77379;SDS011;66439;50.106;10.996;2023-07-28T11:56:00;0.30;;;0.30;;
77379;SDS011;66439;50.106;10.996;2023-07-28T11:58:05;0.40;;;0.40;;
77379;SDS011;66439;50.106;10.996;2023-07-28T12:00:08;0.30;;;0.30;;
77379;SDS011;66439;50.106;10.996;2023-07-28T12:02:12;0.30;;;0.30;;
77379;SDS011;66439;50.106;10.996;2023-07-28T12:04:27;0.30;;;0.30;;
77379;SDS011;66439;50.106;10.996;2023-07-28T12:06:34;0.20;;;0.20;;
77379;SDS011;66439;50.106;10.996;2023-07-28T12:09:28;0.30;;;0.30;;
77379;SDS011;66439;50.106;10.996;2023-07-28T12:11:30;0.30;;;0.30;;
77379;SDS011;66439;50.106;10.996;2023-07-28T12:15:52;0.30;;;0.30;;
77379;SDS011;66439;50.106;10.996;2023-07-28T12:20:11;0.20;;;0.20;;
77379;SDS011;66439;50.106;10.996;2023-07-28T12:22:15;0.30;;;0.30;;
77379;SDS011;66439;50.106;10.996;2023-07-28T12:24:19;0.40;;;0.40;;
77379;SDS011;66439;50.106;10.996;2023-07-28T12:26:23;0.30;;;0.30;;
77379;SDS011;66439;50.106;10.996;2023-07-28T12:28:26;0.40;;;0.40;;
77379;SDS011;66439;50.106;10.996;2023-07-28T12:30:30;0.90;;;0.90;;
77379;SDS011;66439;50.106;10.996;2023-07-28T12:32:33;0.60;;;0.60;;
77379;SDS011;66439;50.106;10.996;2023-07-28T12:34:43;0.50;;;0.50;;
77379;SDS011;66439;50.106;10.996;2023-07-28T12:36:53;0.40;;;0.40;;